sensor_id;sensor_type;location;lat;lon;timestamp;pressure;altitude;pressure_sealevel;temperature;humidity
46682;BME280;34101;53.430;-2.224;2023-03-01T00:00:05;51439.20;;;-148.94;96.64
46682;BME280;34101;53.430;-2.224;2023-03-01T00:02:33;51472.36;;;-148.94;95.23
46682;BME280;34101;53.430;-2.224;2023-03-01T00:05:01;51719.48;;;-148.94;93.69
46682;BME280;34101;53.430;-2.224;2023-03-01T00:07:28;51973.53;;;-148.94;92.41
46682;BME280;34101;53.430;-2.224;2023-03-01T00:09:55;52054.71;;;-148.94;92.94
46682;BME280;34101;53.430;-2.224;2023-03-01T00:12:23;52101.84;;;-148.94;92.63
46682;BME280;34101;53.430;-2.224;2023-03-01T00:14:50;52237.71;;;-148.94;91.42
46682;BME280;34101;53.430;-2.224;2023-03-01T00:17:18;52297.89;;;-148.94;91.39
46682;BME280;34101;53.430;-2.224;2023-03-01T00:19:45;52468.48;;;-148.94;91.14
46682;BME280;34101;53.430;-2.224;2023-03-01T00:22:13;52778.16;;;-148.94;92.49
46682;BME280;34101;53.430;-2.224;2023-03-01T00:24:41;52685.56;;;-148.94;93.29
46682;BME280;34101;53.430;-2.224;2023-03-01T00:27:08;52791.73;;;-148.94;94.52
46682;BME280;34101;53.430;-2.224;2023-03-01T00:29:35;52579.64;;;-148.94;94.21
46682;BME280;34101;53.430;-2.224;2023-03-01T00:32:03;52402.14;;;-148.94;92.30
46682;BME280;34101;53.430;-2.224;2023-03-01T00:34:30;52240.52;;;-148.94;90.93
46682;BME280;34101;53.430;-2.224;2023-03-01T00:36:57;52109.39;;;-148.94;91.78
46682;BME280;34101;53.430;-2.224;2023-03-01T00:39:25;51928.96;;;-148.94;90.86
46682;BME280;34101;53.430;-2.224;2023-03-01T00:41:52;51603.47;;;-148.94;91.49
46682;BME280;34101;53.430;-2.224;2023-03-01T00:44:20;51660.20;;;-148.94;90.18
46682;BME280;34101;53.430;-2.224;2023-03-01T00:46:47;51499.38;;;-148.94;90.57
46682;BME280;34101;53.430;-2.224;2023-03-01T00:49:15;51283.00;;;-148.94;90.17
46682;BME280;34101;53.430;-2.224;2023-03-01T00:51:42;51400.28;;;-148.94;89.94
46682;BME280;34101;53.430;-2.224;2023-03-01T00:54:10;51111.96;;;-148.94;90.91
46682;BME280;34101;53.430;-2.224;2023-03-01T00:56:37;50797.04;;;-148.94;90.55
46682;BME280;34101;53.430;-2.224;2023-03-01T00:59:05;50588.51;;;-148.94;87.58
46682;BME280;34101;53.430;-2.224;2023-03-01T01:01:32;50458.20;;;-148.94;84.84
46682;BME280;34101;53.430;-2.224;2023-03-01T01:04:01;50443.86;;;-148.94;86.10
46682;BME280;34101;53.430;-2.224;2023-03-01T01:06:31;50298.71;;;-148.94;86.99
46682;BME280;34101;53.430;-2.224;2023-03-01T01:09:02;50327.64;;;-148.94;86.58
46682;BME280;34101;53.430;-2.224;2023-03-01T01:11:31;50467.29;;;-148.94;89.04
46682;BME280;34101;53.430;-2.224;2023-03-01T01:13:59;50560.09;;;-148.94;92.16
46682;BME280;34101;53.430;-2.224;2023-03-01T01:16:27;50474.20;;;-148.94;94.97
46682;BME280;34101;53.430;-2.224;2023-03-01T01:18:56;50352.85;;;-148.94;96.00
46682;BME280;34101;53.430;-2.224;2023-03-01T01:21:24;50395.35;;;-148.94;96.69
46682;BME280;34101;53.430;-2.224;2023-03-01T01:23:51;50608.73;;;-148.94;97.44
46682;BME280;34101;53.430;-2.224;2023-03-01T01:26:21;50712.04;;;-148.94;100.00
46682;BME280;34101;53.430;-2.224;2023-03-01T01:28:49;50843.89;;;-148.94;100.00
46682;BME280;34101;53.430;-2.224;2023-03-01T01:31:17;50985.48;;;-148.94;100.00
46682;BME280;34101;53.430;-2.224;2023-03-01T01:33:45;51016.46;;;-148.94;100.00
46682;BME280;34101;53.430;-2.224;2023-03-01T01:36:12;51081.36;;;-148.94;100.00
46682;BME280;34101;53.430;-2.224;2023-03-01T01:38:40;51480.69;;;-148.94;100.00
46682;BME280;34101;53.430;-2.224;2023-03-01T01:41:07;51743.04;;;-148.94;100.00
46682;BME280;34101;53.430;-2.224;2023-03-01T01:43:38;51853.03;;;-148.94;100.00
46682;BME280;34101;53.430;-2.224;2023-03-01T01:46:12;51965.46;;;-148.94;100.00
46682;BME280;34101;53.430;-2.224;2023-03-01T01:48:45;52045.88;;;-148.94;100.00
46682;BME280;34101;53.430;-2.224;2023-03-01T01:51:16;51973.27;;;-148.94;100.00
46682;BME280;34101;53.430;-2.224;2023-03-01T01:53:47;52017.70;;;-148.94;100.00
46682;BME280;34101;53.430;-2.224;2023-03-01T01:56:17;51978.52;;;-148.94;100.00
46682;BME280;34101;53.430;-2.224;2023-03-01T01:58:46;52109.52;;;-148.94;100.00
46682;BME280;34101;53.430;-2.224;2023-03-01T02:01:13;52109.78;;;-148.94;100.00
46682;BME280;34101;53.430;-2.224;2023-03-01T02:03:43;52368.33;;;-148.94;100.00
46682;BME280;34101;53.430;-2.224;2023-03-01T02:06:18;52385.87;;;-148.94;100.00
46682;BME280;34101;53.430;-2.224;2023-03-01T02:08:48;52203.13;;;-148.94;100.00
46682;BME280;34101;53.430;-2.224;2023-03-01T02:11:17;52247.82;;;-148.94;100.00
46682;BME280;34101;53.430;-2.224;2023-03-01T02:13:47;52281.76;;;-148.94;100.00
46682;BME280;34101;53.430;-2.224;2023-03-01T02:16:16;52345.41;;;-148.94;100.00
46682;BME280;34101;53.430;-2.224;2023-03-01T02:18:44;52426.60;;;-148.94;100.00
46682;BME280;34101;53.430;-2.224;2023-03-01T02:21:21;52739.73;;;-148.94;100.00
46682;BME280;34101;53.430;-2.224;2023-03-01T02:23:53;52812.87;;;-148.94;100.00
46682;BME280;34101;53.430;-2.224;2023-03-01T02:26:25;52899.58;;;-148.94;100.00
46682;BME280;34101;53.430;-2.224;2023-03-01T02:28:54;52741.01;;;-148.94;100.00
46682;BME280;34101;53.430;-2.224;2023-03-01T02:31:22;52692.73;;;-148.94;100.00
46682;BME280;34101;53.430;-2.224;2023-03-01T02:33:49;52756.64;;;-148.94;100.00
46682;BME280;34101;53.430;-2.224;2023-03-01T02:36:20;52840.40;;;-148.94;100.00
46682;BME280;34101;53.430;-2.224;2023-03-01T02:38:51;52586.81;;;-148.94;100.00
46682;BME280;34101;53.430;-2.224;2023-03-01T02:41:20;52328.76;;;-148.94;99.67
46682;BME280;34101;53.430;-2.224;2023-03-01T02:43:48;52388.95;;;-148.94;96.61
46682;BME280;34101;53.430;-2.224;2023-03-01T02:46:18;52491.14;;;-148.94;98.40
46682;BME280;34101;53.430;-2.224;2023-03-01T02:48:48;52366.92;;;-148.94;99.91
46682;BME280;34101;53.430;-2.224;2023-03-01T02:51:42;52085.45;;;-148.94;97.39
46682;BME280;34101;53.430;-2.224;2023-03-01T02:54:20;51892.09;;;-148.94;96.51
46682;BME280;34101;53.430;-2.224;2023-03-01T02:56:50;51853.67;;;-148.94;95.60
46682;BME280;34101;53.430;-2.224;2023-03-01T02:59:19;51768.14;;;-148.94;92.60
46682;BME280;34101;53.430;-2.224;2023-03-01T03:01:47;51573.00;;;-148.94;93.79
46682;BME280;34101;53.430;-2.224;2023-03-01T03:04:16;51425.25;;;-148.94;93.41
46682;BME280;34101;53.430;-2.224;2023-03-01T03:06:44;51420.13;;;-148.94;92.55
46682;BME280;34101;53.430;-2.224;2023-03-01T03:09:13;51413.60;;;-148.94;91.62
46682;BME280;34101;53.430;-2.224;2023-03-01T03:11:41;51421.79;;;-148.94;90.62
46682;BME280;34101;53.430;-2.224;2023-03-01T03:14:10;51488.50;;;-148.94;90.75
46682;BME280;34101;53.430;-2.224;2023-03-01T03:16:40;51370.96;;;-148.94;91.67
46682;BME280;34101;53.430;-2.224;2023-03-01T03:19:08;51258.42;;;-148.94;89.63
46682;BME280;34101;53.430;-2.224;2023-03-01T03:21:35;51392.09;;;-148.94;88.94
46682;BME280;34101;53.430;-2.224;2023-03-01T03:24:03;51592.98;;;-148.94;89.69
46682;BME280;34101;53.430;-2.224;2023-03-01T03:26:30;51883.00;;;-148.94;91.04
46682;BME280;34101;53.430;-2.224;2023-03-01T03:28:58;51933.83;;;-148.94;90.87
46682;BME280;34101;53.430;-2.224;2023-03-01T03:31:25;51852.39;;;-148.94;90.76
46682;BME280;34101;53.430;-2.224;2023-03-01T03:33:53;51955.60;;;-148.94;88.09
46682;BME280;34101;53.430;-2.224;2023-03-01T03:36:22;52093.77;;;-148.94;88.90
46682;BME280;34101;53.430;-2.224;2023-03-01T03:38:49;51920.26;;;-148.94;89.74
46682;BME280;34101;53.430;-2.224;2023-03-01T03:41:17;51864.30;;;-148.94;89.59
46682;BME280;34101;53.430;-2.224;2023-03-01T03:43:44;51778.51;;;-148.94;90.09
46682;BME280;34101;53.430;-2.224;2023-03-01T03:46:11;51686.57;;;-148.94;90.02
46682;BME280;34101;53.430;-2.224;2023-03-01T03:48:41;51693.74;;;-148.94;90.68
46682;BME280;34101;53.430;-2.224;2023-03-01T03:51:10;51719.35;;;-148.94;89.37
46682;BME280;34101;53.430;-2.224;2023-03-01T03:53:40;51583.37;;;-148.94;90.26
46682;BME280;34101;53.430;-2.224;2023-03-01T03:56:08;51798.74;;;-148.94;85.91
46682;BME280;34101;53.430;-2.224;2023-03-01T03:58:35;51965.97;;;-148.94;87.25
46682;BME280;34101;53.430;-2.224;2023-03-01T04:01:04;52075.20;;;-148.94;89.10
46682;BME280;34101;53.430;-2.224;2023-03-01T04:03:32;51916.93;;;-148.94;87.13
46682;BME280;34101;53.430;-2.224;2023-03-01T04:06:02;52217.34;;;-148.94;86.01
46682;BME280;34101;53.430;-2.224;2023-03-01T04:08:30;52076.99;;;-148.94;88.09
46682;BME280;34101;53.430;-2.224;2023-03-01T04:10:59;52044.34;;;-148.94;87.09
46682;BME280;34101;53.430;-2.224;2023-03-01T04:13:26;51999.52;;;-148.94;85.65
46682;BME280;34101;53.430;-2.224;2023-03-01T04:15:54;52210.04;;;-148.94;86.43
46682;BME280;34101;53.430;-2.224;2023-03-01T04:18:23;51940.87;;;-148.94;86.59
46682;BME280;34101;53.430;-2.224;2023-03-01T04:20:52;51909.37;;;-148.94;85.17
46682;BME280;34101;53.430;-2.224;2023-03-01T04:23:20;52030.77;;;-148.94;85.08
46682;BME280;34101;53.430;-2.224;2023-03-01T04:25:49;52073.41;;;-148.94;85.08
46682;BME280;34101;53.430;-2.224;2023-03-01T04:28:17;52054.84;;;-148.94;86.57
46682;BME280;34101;53.430;-2.224;2023-03-01T04:30:44;52028.72;;;-148.94;86.32
46682;BME280;34101;53.430;-2.224;2023-03-01T04:33:12;52126.17;;;-148.94;85.73
46682;BME280;34101;53.430;-2.224;2023-03-01T04:35:40;52211.84;;;-148.94;85.84
46682;BME280;34101;53.430;-2.224;2023-03-01T04:38:07;52386.90;;;-148.94;86.50
46682;BME280;34101;53.430;-2.224;2023-03-01T04:40:34;52362.05;;;-148.94;87.73
46682;BME280;34101;53.430;-2.224;2023-03-01T04:43:03;52377.81;;;-148.94;87.73
46682;BME280;34101;53.430;-2.224;2023-03-01T04:45:32;52577.46;;;-148.94;87.66
46682;BME280;34101;53.430;-2.224;2023-03-01T04:48:00;52655.84;;;-148.94;88.36
46682;BME280;34101;53.430;-2.224;2023-03-01T04:50:27;52594.50;;;-148.94;89.66
46682;BME280;34101;53.430;-2.224;2023-03-01T04:52:55;52590.53;;;-148.94;89.02
46682;BME280;34101;53.430;-2.224;2023-03-01T04:55:22;52621.01;;;-148.94;89.14
46682;BME280;34101;53.430;-2.224;2023-03-01T04:57:50;52658.66;;;-148.94;88.71
46682;BME280;34101;53.430;-2.224;2023-03-01T05:00:18;52842.45;;;-148.94;88.81
46682;BME280;34101;53.430;-2.224;2023-03-01T05:02:45;52937.10;;;-148.94;89.89
46682;BME280;34101;53.430;-2.224;2023-03-01T05:05:13;53146.40;;;-148.94;90.87
46682;BME280;34101;53.430;-2.224;2023-03-01T05:07:41;53163.43;;;-148.94;90.95
46682;BME280;34101;53.430;-2.224;2023-03-01T05:10:09;53323.42;;;-148.94;91.41
46682;BME280;34101;53.430;-2.224;2023-03-01T05:12:36;53160.36;;;-148.94;92.51
46682;BME280;34101;53.430;-2.224;2023-03-01T05:15:05;53161.38;;;-148.94;91.45
46682;BME280;34101;53.430;-2.224;2023-03-01T05:17:32;53228.76;;;-148.94;92.56
46682;BME280;34101;53.430;-2.224;2023-03-01T05:19:59;53111.56;;;-148.94;94.33
46682;BME280;34101;53.430;-2.224;2023-03-01T05:22:27;53003.96;;;-148.94;93.92
46682;BME280;34101;53.430;-2.224;2023-03-01T05:24:54;52763.43;;;-148.94;92.10
46682;BME280;34101;53.430;-2.224;2023-03-01T05:27:22;52836.30;;;-148.94;91.34
46682;BME280;34101;53.430;-2.224;2023-03-01T05:29:49;52693.88;;;-148.94;91.00
46682;BME280;34101;53.430;-2.224;2023-03-01T05:32:17;52966.56;;;-148.94;89.41
46682;BME280;34101;53.430;-2.224;2023-03-01T05:34:44;53067.24;;;-148.94;91.44
46682;BME280;34101;53.430;-2.224;2023-03-01T05:37:12;53001.27;;;-148.94;89.21
46682;BME280;34101;53.430;-2.224;2023-03-01T05:39:40;52996.28;;;-148.94;89.71
46682;BME280;34101;53.430;-2.224;2023-03-01T05:42:10;53128.72;;;-148.94;88.68
46682;BME280;34101;53.430;-2.224;2023-03-01T05:44:38;53191.36;;;-148.94;89.22
46682;BME280;34101;53.430;-2.224;2023-03-01T05:47:06;53224.79;;;-148.94;91.24
46682;BME280;34101;53.430;-2.224;2023-03-01T05:49:33;53045.34;;;-148.94;91.87
46682;BME280;34101;53.430;-2.224;2023-03-01T05:52:01;52871.27;;;-148.94;89.57
46682;BME280;34101;53.430;-2.224;2023-03-01T05:54:28;52838.87;;;-148.94;89.19
46682;BME280;34101;53.430;-2.224;2023-03-01T05:56:55;52919.43;;;-148.94;88.03
46682;BME280;34101;53.430;-2.224;2023-03-01T05:59:23;52906.88;;;-148.94;89.92
46682;BME280;34101;53.430;-2.224;2023-03-01T06:01:50;52652.90;;;-148.94;87.48
46682;BME280;34101;53.430;-2.224;2023-03-01T06:04:18;52868.58;;;-148.94;85.85
46682;BME280;34101;53.430;-2.224;2023-03-01T06:06:45;52953.75;;;-148.94;87.00
46682;BME280;34101;53.430;-2.224;2023-03-01T06:09:13;52871.14;;;-148.94;87.23
46682;BME280;34101;53.430;-2.224;2023-03-01T06:11:41;52881.00;;;-148.94;87.70
46682;BME280;34101;53.430;-2.224;2023-03-01T06:14:08;52676.98;;;-148.94;88.33
46682;BME280;34101;53.430;-2.224;2023-03-01T06:16:35;52428.65;;;-148.94;87.43
46682;BME280;34101;53.430;-2.224;2023-03-01T06:19:02;52264.09;;;-148.94;86.47
46682;BME280;34101;53.430;-2.224;2023-03-01T06:21:30;52195.83;;;-148.94;84.98
46682;BME280;34101;53.430;-2.224;2023-03-01T06:23:57;52210.30;;;-148.94;83.64
46682;BME280;34101;53.430;-2.224;2023-03-01T06:26:25;52064.83;;;-148.94;83.64
46682;BME280;34101;53.430;-2.224;2023-03-01T06:28:52;52439.02;;;-148.94;83.70
46682;BME280;34101;53.430;-2.224;2023-03-01T06:31:20;52258.84;;;-148.94;84.41
46682;BME280;34101;53.430;-2.224;2023-03-01T06:33:47;51985.69;;;-148.94;84.12
46682;BME280;34101;53.430;-2.224;2023-03-01T06:36:15;51984.54;;;-148.94;83.27
46682;BME280;34101;53.430;-2.224;2023-03-01T06:38:42;51904.76;;;-148.94;81.71
46682;BME280;34101;53.430;-2.224;2023-03-01T06:41:10;51953.29;;;-148.94;81.60
46682;BME280;34101;53.430;-2.224;2023-03-01T06:43:37;51934.73;;;-148.94;83.06
46682;BME280;34101;53.430;-2.224;2023-03-01T06:46:05;52049.08;;;-148.94;82.39
46682;BME280;34101;53.430;-2.224;2023-03-01T06:48:33;51958.80;;;-148.94;83.79
46682;BME280;34101;53.430;-2.224;2023-03-01T06:51:00;51789.14;;;-148.94;82.80
46682;BME280;34101;53.430;-2.224;2023-03-01T06:53:28;51702.19;;;-148.94;82.66
46682;BME280;34101;53.430;-2.224;2023-03-01T06:55:55;51573.90;;;-148.94;81.53
46682;BME280;34101;53.430;-2.224;2023-03-01T06:58:23;51859.95;;;-148.94;81.18
46682;BME280;34101;53.430;-2.224;2023-03-01T07:00:50;51824.86;;;-148.94;81.73
46682;BME280;34101;53.430;-2.224;2023-03-01T07:03:18;51884.15;;;-148.94;82.98
46682;BME280;34101;53.430;-2.224;2023-03-01T07:05:48;51973.53;;;-148.94;83.13
46682;BME280;34101;53.430;-2.224;2023-03-01T07:08:15;51754.95;;;-148.94;84.15
46682;BME280;34101;53.430;-2.224;2023-03-01T07:10:42;51638.81;;;-148.94;84.10
46682;BME280;34101;53.430;-2.224;2023-03-01T07:13:09;51438.82;;;-148.94;82.82
46682;BME280;34101;53.430;-2.224;2023-03-01T07:15:37;51376.72;;;-148.94;82.73
46682;BME280;34101;53.430;-2.224;2023-03-01T07:18:04;51522.30;;;-148.94;83.61
46682;BME280;34101;53.430;-2.224;2023-03-01T07:20:32;51724.47;;;-148.94;84.35
46682;BME280;34101;53.430;-2.224;2023-03-01T07:22:59;51650.34;;;-148.94;88.54
46682;BME280;34101;53.430;-2.224;2023-03-01T07:25:27;51722.30;;;-148.94;88.16
46682;BME280;34101;53.430;-2.224;2023-03-01T07:27:54;51782.61;;;-148.94;90.61
46682;BME280;34101;53.430;-2.224;2023-03-01T07:30:22;51924.36;;;-148.94;91.12
46682;BME280;34101;53.430;-2.224;2023-03-01T07:32:49;52254.87;;;-148.94;92.54
46682;BME280;34101;53.430;-2.224;2023-03-01T07:35:17;52250.64;;;-148.94;92.63
46682;BME280;34101;53.430;-2.224;2023-03-01T07:37:44;52242.83;;;-148.94;92.35
46682;BME280;34101;53.430;-2.224;2023-03-01T07:40:12;52286.24;;;-148.94;92.49
46682;BME280;34101;53.430;-2.224;2023-03-01T07:42:40;52120.02;;;-148.94;93.11
46682;BME280;34101;53.430;-2.224;2023-03-01T07:45:08;51906.68;;;-148.94;93.26
46682;BME280;34101;53.430;-2.224;2023-03-01T07:47:35;51715.51;;;-148.94;90.17
46682;BME280;34101;53.430;-2.224;2023-03-01T07:50:03;51792.72;;;-148.94;88.60
46682;BME280;34101;53.430;-2.224;2023-03-01T07:52:31;52094.15;;;-148.94;89.67
46682;BME280;34101;53.430;-2.224;2023-03-01T07:54:59;51973.78;;;-148.94;90.30
46682;BME280;34101;53.430;-2.224;2023-03-01T07:57:26;51852.01;;;-148.94;89.31
46682;BME280;34101;53.430;-2.224;2023-03-01T07:59:53;51820.00;;;-148.94;88.96
46682;BME280;34101;53.430;-2.224;2023-03-01T08:02:21;51560.58;;;-148.94;87.93
46682;BME280;34101;53.430;-2.224;2023-03-01T08:04:48;51405.53;;;-148.94;86.70
46682;BME280;34101;53.430;-2.224;2023-03-01T08:07:16;51287.10;;;-148.94;87.52
46682;BME280;34101;53.430;-2.224;2023-03-01T08:09:43;51144.99;;;-148.94;86.81
46682;BME280;34101;53.430;-2.224;2023-03-01T08:12:11;51043.21;;;-148.94;85.50
46682;BME280;34101;53.430;-2.224;2023-03-01T08:14:39;51019.02;;;-148.94;85.60
46682;BME280;34101;53.430;-2.224;2023-03-01T08:17:06;50833.52;;;-148.94;84.80
46682;BME280;34101;53.430;-2.224;2023-03-01T08:19:33;50729.32;;;-148.94;85.09
46682;BME280;34101;53.430;-2.224;2023-03-01T08:22:01;50570.84;;;-148.94;85.10
46682;BME280;34101;53.430;-2.224;2023-03-01T08:24:29;50357.85;;;-148.94;84.54
46682;BME280;34101;53.430;-2.224;2023-03-01T08:26:56;50266.58;;;-148.94;83.46
46682;BME280;34101;53.430;-2.224;2023-03-01T08:29:24;50210.01;;;-148.94;84.57
46682;BME280;34101;53.430;-2.224;2023-03-01T08:31:51;50138.59;;;-148.94;83.98
46682;BME280;34101;53.430;-2.224;2023-03-01T08:34:19;49884.79;;;-148.94;83.77
46682;BME280;34101;53.430;-2.224;2023-03-01T08:36:47;49831.68;;;-148.94;83.77
46682;BME280;34101;53.430;-2.224;2023-03-01T08:39:16;49922.42;;;-148.94;82.88
46682;BME280;34101;53.430;-2.224;2023-03-01T08:41:44;49910.26;;;-148.94;82.57
46682;BME280;34101;53.430;-2.224;2023-03-01T08:44:12;49939.05;;;-148.94;83.65
46682;BME280;34101;53.430;-2.224;2023-03-01T08:46:41;50108.38;;;-148.94;83.99
46682;BME280;34101;53.430;-2.224;2023-03-01T08:49:11;49874.68;;;-148.94;82.73
46682;BME280;34101;53.430;-2.224;2023-03-01T08:51:39;48931.68;;;-148.94;82.37
46682;BME280;34101;53.430;-2.224;2023-03-01T08:54:10;48279.43;;;-148.94;79.18
46682;BME280;34101;53.430;-2.224;2023-03-01T08:56:38;48248.34;;;-148.94;76.09
46682;BME280;34101;53.430;-2.224;2023-03-01T08:59:05;48109.28;;;-148.94;75.99
46682;BME280;34101;53.430;-2.224;2023-03-01T09:01:32;48241.05;;;-148.94;76.39
46682;BME280;34101;53.430;-2.224;2023-03-01T09:04:00;48249.24;;;-148.94;73.98
46682;BME280;34101;53.430;-2.224;2023-03-01T09:06:30;48322.03;;;-148.94;74.32
46682;BME280;34101;53.430;-2.224;2023-03-01T09:08:57;48544.00;;;-148.94;75.65
46682;BME280;34101;53.430;-2.224;2023-03-01T09:11:25;48571.38;;;-148.94;74.05
46682;BME280;34101;53.430;-2.224;2023-03-01T09:13:52;48529.16;;;-148.94;74.76
46682;BME280;34101;53.430;-2.224;2023-03-01T09:16:20;48435.12;;;-148.94;75.53
46682;BME280;34101;53.430;-2.224;2023-03-01T09:18:49;48327.79;;;-148.94;74.02
46682;BME280;34101;53.430;-2.224;2023-03-01T09:21:19;47937.23;;;-148.94;74.29
46682;BME280;34101;53.430;-2.224;2023-03-01T09:23:47;47797.15;;;-148.94;72.82
46682;BME280;34101;53.430;-2.224;2023-03-01T09:26:17;47841.54;;;-148.94;73.09
46682;BME280;34101;53.430;-2.224;2023-03-01T09:28:46;47699.68;;;-148.94;73.16
46682;BME280;34101;53.430;-2.224;2023-03-01T09:31:14;47411.76;;;-148.94;70.78
46682;BME280;34101;53.430;-2.224;2023-03-01T09:33:45;47218.76;;;-148.94;69.60
46682;BME280;34101;53.430;-2.224;2023-03-01T09:36:15;47269.66;;;-148.94;69.28
46682;BME280;34101;53.430;-2.224;2023-03-01T09:38:42;47340.39;;;-148.94;71.43
46682;BME280;34101;53.430;-2.224;2023-03-01T09:41:11;47395.39;;;-148.94;72.48
46682;BME280;34101;53.430;-2.224;2023-03-01T09:43:48;47257.77;;;-148.94;72.65
46682;BME280;34101;53.430;-2.224;2023-03-01T09:46:16;46963.48;;;-148.94;74.00
46682;BME280;34101;53.430;-2.224;2023-03-01T09:48:50;46582.26;;;-148.94;72.11
46682;BME280;34101;53.430;-2.224;2023-03-01T09:51:23;46312.32;;;-148.94;70.12
46682;BME280;34101;53.430;-2.224;2023-03-01T09:53:52;46127.43;;;-148.94;70.08
46682;BME280;34101;53.430;-2.224;2023-03-01T09:56:24;46262.33;;;-148.94;69.95
46682;BME280;34101;53.430;-2.224;2023-03-01T09:58:59;46426.51;;;-148.94;70.47
46682;BME280;34101;53.430;-2.224;2023-03-01T10:01:35;46337.39;;;-148.94;69.97
46682;BME280;34101;53.430;-2.224;2023-03-01T10:04:20;46080.76;;;-148.94;69.04
46682;BME280;34101;53.430;-2.224;2023-03-01T10:06:58;43645.26;;;-148.94;69.40
46682;BME280;34101;53.430;-2.224;2023-03-01T10:09:29;40551.85;;;-148.94;60.91
46682;BME280;34101;53.430;-2.224;2023-03-01T10:12:02;39585.42;;;-148.94;58.02
46682;BME280;34101;53.430;-2.224;2023-03-01T10:14:36;38866.82;;;-148.94;55.40
46682;BME280;34101;53.430;-2.224;2023-03-01T10:17:11;38535.90;;;-148.94;54.67
46682;BME280;34101;53.430;-2.224;2023-03-01T10:19:42;37420.82;;;-148.94;53.10
46682;BME280;34101;53.430;-2.224;2023-03-01T10:22:15;37577.49;;;-148.94;51.80
46682;BME280;34101;53.430;-2.224;2023-03-01T10:24:43;36584.75;;;-148.94;51.20
46682;BME280;34101;53.430;-2.224;2023-03-01T10:27:16;34723.69;;;-148.94;51.12
46682;BME280;34101;53.430;-2.224;2023-03-01T10:29:50;33202.49;;;-148.94;48.23
46682;BME280;34101;53.430;-2.224;2023-03-01T10:32:19;33514.10;;;-148.94;47.39
46682;BME280;34101;53.430;-2.224;2023-03-01T10:34:46;33920.70;;;-148.94;47.83
46682;BME280;34101;53.430;-2.224;2023-03-01T10:37:15;33967.86;;;-148.94;47.70
46682;BME280;34101;53.430;-2.224;2023-03-01T10:40:00;34376.93;;;-148.94;47.09
46682;BME280;34101;53.430;-2.224;2023-03-01T10:42:29;35675.41;;;-148.94;47.90
46682;BME280;34101;53.430;-2.224;2023-03-01T10:44:58;37232.52;;;-148.94;49.43
46682;BME280;34101;53.430;-2.224;2023-03-01T10:47:41;37826.03;;;-148.94;50.37
46682;BME280;34101;53.430;-2.224;2023-03-01T10:50:19;38862.22;;;-148.94;51.53
46682;BME280;34101;53.430;-2.224;2023-03-01T10:52:58;39476.41;;;-148.94;52.59
46682;BME280;34101;53.430;-2.224;2023-03-01T10:55:31;39902.01;;;-148.94;53.14
46682;BME280;34101;53.430;-2.224;2023-03-01T10:58:18;40494.52;;;-148.94;53.97
46682;BME280;34101;53.430;-2.224;2023-03-01T11:00:49;40759.98;;;-148.94;54.10
46682;BME280;34101;53.430;-2.224;2023-03-01T11:03:21;41290.30;;;-148.94;54.91
46682;BME280;34101;53.430;-2.224;2023-03-01T11:05:55;41438.06;;;-148.94;54.95
46682;BME280;34101;53.430;-2.224;2023-03-01T11:08:34;41228.11;;;-148.94;55.17
46682;BME280;34101;53.430;-2.224;2023-03-01T11:11:16;41649.17;;;-148.94;56.05
46682;BME280;34101;53.430;-2.224;2023-03-01T11:13:54;41950.47;;;-148.94;59.51
46682;BME280;34101;53.430;-2.224;2023-03-01T11:16:26;42234.93;;;-148.94;62.83
46682;BME280;34101;53.430;-2.224;2023-03-01T11:18:59;42002.07;;;-148.94;65.07
46682;BME280;34101;53.430;-2.224;2023-03-01T11:21:29;40926.62;;;-148.94;66.45
46682;BME280;34101;53.430;-2.224;2023-03-01T11:24:00;39974.39;;;-148.94;62.75
46682;BME280;34101;53.430;-2.224;2023-03-01T11:26:30;38962.67;;;-148.94;59.94
46682;BME280;34101;53.430;-2.224;2023-03-01T11:29:06;39323.88;;;-148.94;59.01
46682;BME280;34101;53.430;-2.224;2023-03-01T11:31:39;40122.23;;;-148.94;57.36
46682;BME280;34101;53.430;-2.224;2023-03-01T11:34:13;40643.27;;;-148.94;57.50
46682;BME280;34101;53.430;-2.224;2023-03-01T11:36:44;41609.20;;;-148.94;57.14
46682;BME280;34101;53.430;-2.224;2023-03-01T11:39:23;42663.63;;;-148.94;56.65
46682;BME280;34101;53.430;-2.224;2023-03-01T11:42:01;43051.37;;;-148.94;57.69
46682;BME280;34101;53.430;-2.224;2023-03-01T11:44:34;43102.22;;;-148.94;58.08
46682;BME280;34101;53.430;-2.224;2023-03-01T11:47:23;42654.05;;;-148.94;58.04
46682;BME280;34101;53.430;-2.224;2023-03-01T11:50:10;42713.97;;;-148.94;56.80
46682;BME280;34101;53.430;-2.224;2023-03-01T11:52:47;42961.94;;;-148.94;55.96
46682;BME280;34101;53.430;-2.224;2023-03-01T11:55:26;42797.64;;;-148.94;56.55
46682;BME280;34101;53.430;-2.224;2023-03-01T11:58:08;42844.78;;;-148.94;56.31
46682;BME280;34101;53.430;-2.224;2023-03-01T12:00:51;41366.16;;;-148.94;56.78
46682;BME280;34101;53.430;-2.224;2023-03-01T12:03:27;40654.38;;;-148.94;55.56
46682;BME280;34101;53.430;-2.224;2023-03-01T12:06:25;40377.70;;;-148.94;54.25
46682;BME280;34101;53.430;-2.224;2023-03-01T12:09:06;40893.54;;;-148.94;54.40
46682;BME280;34101;53.430;-2.224;2023-03-01T12:11:56;41111.39;;;-148.94;53.55
46682;BME280;34101;53.430;-2.224;2023-03-01T12:14:57;41136.04;;;-148.94;54.14
46682;BME280;34101;53.430;-2.224;2023-03-01T12:17:43;41503.45;;;-148.94;54.31
46682;BME280;34101;53.430;-2.224;2023-03-01T12:20:22;41624.01;;;-148.94;54.87
46682;BME280;34101;53.430;-2.224;2023-03-01T12:23:12;41798.73;;;-148.94;55.31
46682;BME280;34101;53.430;-2.224;2023-03-01T12:25:47;41575.48;;;-148.94;55.00
46682;BME280;34101;53.430;-2.224;2023-03-01T12:28:33;41649.68;;;-148.94;54.67
46682;BME280;34101;53.430;-2.224;2023-03-01T12:31:34;41623.88;;;-148.94;54.65
46682;BME280;34101;53.430;-2.224;2023-03-01T12:34:18;41641.51;;;-148.94;53.94
46682;BME280;34101;53.430;-2.224;2023-03-01T12:37:01;41849.57;;;-148.94;54.21
46682;BME280;34101;53.430;-2.224;2023-03-01T12:39:45;41949.70;;;-148.94;55.32
46682;BME280;34101;53.430;-2.224;2023-03-01T12:42:24;41822.10;;;-148.94;55.07
